sensor_id;sensor_type;location;lat;lon;timestamp;P1;durP1;ratioP1;P2;durP2;ratioP2
4808;SDS011;2418;49.930;8.606;2022-10-16T00:01:10;3.90;;;3.55;;
4808;SDS011;2418;49.930;8.606;2022-10-16T00:03:38;4.10;;;3.80;;
4808;SDS011;2418;49.930;8.606;2022-10-16T00:06:05;4.93;;;3.43;;
4808;SDS011;2418;49.930;8.606;2022-10-16T00:08:32;4.05;;;3.67;;
4808;SDS011;2418;49.930;8.606;2022-10-16T00:10:59;3.90;;;3.50;;
4808;SDS011;2418;49.930;8.606;2022-10-16T00:13:26;4.13;;;3.80;;
4808;SDS011;2418;49.930;8.606;2022-10-16T00:15:54;4.15;;;3.03;;
4808;SDS011;2418;49.930;8.606;2022-10-16T00:18:21;3.15;;;3.05;;
4808;SDS011;2418;49.930;8.606;2022-10-16T00:20:47;3.63;;;3.33;;
4808;SDS011;2418;49.930;8.606;2022-10-16T00:23:12;3.60;;;3.00;;
4808;SDS011;2418;49.930;8.606;2022-10-16T00:25:38;3.33;;;3.13;;
4808;SDS011;2418;49.930;8.606;2022-10-16T00:28:04;5.40;;;2.90;;
4808;SDS011;2418;49.930;8.606;2022-10-16T00:30:30;4.03;;;3.40;;
4808;SDS011;2418;49.930;8.606;2022-10-16T00:32:56;3.70;;;3.37;;
4808;SDS011;2418;49.930;8.606;2022-10-16T00:35:22;3.58;;;3.38;;
4808;SDS011;2418;49.930;8.606;2022-10-16T00:37:47;5.45;;;3.50;;
4808;SDS011;2418;49.930;8.606;2022-10-16T00:40:13;3.70;;;3.30;;
4808;SDS011;2418;49.930;8.606;2022-10-16T00:42:39;3.35;;;3.10;;
4808;SDS011;2418;49.930;8.606;2022-10-16T00:45:05;5.00;;;2.75;;
4808;SDS011;2418;49.930;8.606;2022-10-16T00:47:39;4.15;;;3.03;;
4808;SDS011;2418;49.930;8.606;2022-10-16T00:50:30;3.50;;;3.20;;
4808;SDS011;2418;49.930;8.606;2022-10-16T00:52:57;3.58;;;2.78;;
4808;SDS011;2418;49.930;8.606;2022-10-16T00:55:25;3.00;;;2.47;;
4808;SDS011;2418;49.930;8.606;2022-10-16T00:57:53;2.78;;;2.67;;
4808;SDS011;2418;49.930;8.606;2022-10-16T01:00:21;4.65;;;2.13;;
4808;SDS011;2418;49.930;8.606;2022-10-16T01:02:58;3.45;;;2.55;;
4808;SDS011;2418;49.930;8.606;2022-10-16T01:05:44;2.20;;;2.00;;
4808;SDS011;2418;49.930;8.606;2022-10-16T01:08:29;2.08;;;1.60;;
4808;SDS011;2418;49.930;8.606;2022-10-16T01:11:12;1.83;;;1.73;;
4808;SDS011;2418;49.930;8.606;2022-10-16T01:13:58;1.40;;;1.40;;
4808;SDS011;2418;49.930;8.606;2022-10-16T01:16:49;3.20;;;1.60;;
4808;SDS011;2418;49.930;8.606;2022-10-16T01:19:31;2.10;;;1.50;;
4808;SDS011;2418;49.930;8.606;2022-10-16T01:22:16;3.00;;;1.40;;
4808;SDS011;2418;49.930;8.606;2022-10-16T01:24:48;3.30;;;1.40;;
4808;SDS011;2418;49.930;8.606;2022-10-16T01:37:46;1.90;;;1.20;;
4808;SDS011;2418;49.930;8.606;2022-10-16T01:40:19;3.50;;;0.80;;
4808;SDS011;2418;49.930;8.606;2022-10-16T01:43:33;0.90;;;0.90;;
4808;SDS011;2418;49.930;8.606;2022-10-16T01:45:41;4.45;;;0.90;;
4808;SDS011;2418;49.930;8.606;2022-10-16T01:48:09;0.80;;;0.80;;
4808;SDS011;2418;49.930;8.606;2022-10-16T01:50:38;0.90;;;0.90;;
4808;SDS011;2418;49.930;8.606;2022-10-16T01:53:06;2.75;;;1.00;;
4808;SDS011;2418;49.930;8.606;2022-10-16T01:55:36;1.20;;;1.20;;
4808;SDS011;2418;49.930;8.606;2022-10-16T01:58:08;2.30;;;0.80;;
4808;SDS011;2418;49.930;8.606;2022-10-16T02:00:36;4.50;;;0.75;;
4808;SDS011;2418;49.930;8.606;2022-10-16T02:03:04;1.50;;;0.70;;
4808;SDS011;2418;49.930;8.606;2022-10-16T02:05:42;0.80;;;0.60;;
4808;SDS011;2418;49.930;8.606;2022-10-16T02:08:12;1.80;;;0.70;;
4808;SDS011;2418;49.930;8.606;2022-10-16T02:10:37;0.80;;;0.80;;
4808;SDS011;2418;49.930;8.606;2022-10-16T02:13:09;4.57;;;1.05;;
4808;SDS011;2418;49.930;8.606;2022-10-16T02:15:41;2.20;;;0.90;;
4808;SDS011;2418;49.930;8.606;2022-10-16T02:18:07;1.90;;;1.05;;
4808;SDS011;2418;49.930;8.606;2022-10-16T02:20:37;2.00;;;1.10;;
4808;SDS011;2418;49.930;8.606;2022-10-16T02:23:33;2.33;;;1.50;;
4808;SDS011;2418;49.930;8.606;2022-10-16T02:26:01;3.10;;;1.20;;
4808;SDS011;2418;49.930;8.606;2022-10-16T02:28:42;2.08;;;1.38;;
4808;SDS011;2418;49.930;8.606;2022-10-16T02:31:13;3.85;;;1.40;;
4808;SDS011;2418;49.930;8.606;2022-10-16T02:33:43;3.63;;;1.80;;
4808;SDS011;2418;49.930;8.606;2022-10-16T02:36:10;5.38;;;1.80;;
4808;SDS011;2418;49.930;8.606;2022-10-16T02:38:36;1.67;;;1.67;;
4808;SDS011;2418;49.930;8.606;2022-10-16T02:41:04;2.60;;;1.55;;
4808;SDS011;2418;49.930;8.606;2022-10-16T02:43:30;1.60;;;1.60;;
4808;SDS011;2418;49.930;8.606;2022-10-16T02:45:57;3.47;;;1.38;;
4808;SDS011;2418;49.930;8.606;2022-10-16T02:48:22;3.60;;;1.50;;
4808;SDS011;2418;49.930;8.606;2022-10-16T02:50:48;2.10;;;1.83;;
4808;SDS011;2418;49.930;8.606;2022-10-16T02:53:14;9.10;;;2.00;;
4808;SDS011;2418;49.930;8.606;2022-10-16T02:55:39;3.40;;;1.70;;
4808;SDS011;2418;49.930;8.606;2022-10-16T02:58:05;3.20;;;1.70;;
4808;SDS011;2418;49.930;8.606;2022-10-16T03:00:30;2.07;;;1.87;;
4808;SDS011;2418;49.930;8.606;2022-10-16T03:02:56;6.82;;;1.85;;
4808;SDS011;2418;49.930;8.606;2022-10-16T03:05:21;3.95;;;3.00;;
4808;SDS011;2418;49.930;8.606;2022-10-16T03:07:47;2.60;;;2.30;;
4808;SDS011;2418;49.930;8.606;2022-10-16T03:10:13;6.70;;;2.30;;
4808;SDS011;2418;49.930;8.606;2022-10-16T03:12:38;2.40;;;2.30;;
4808;SDS011;2418;49.930;8.606;2022-10-16T03:15:04;2.40;;;2.30;;
4808;SDS011;2418;49.930;8.606;2022-10-16T03:17:31;8.10;;;3.22;;
4808;SDS011;2418;49.930;8.606;2022-10-16T03:19:57;3.00;;;2.90;;
4808;SDS011;2418;49.930;8.606;2022-10-16T03:22:22;3.65;;;3.35;;
4808;SDS011;2418;49.930;8.606;2022-10-16T03:24:48;8.82;;;3.42;;
4808;SDS011;2418;49.930;8.606;2022-10-16T03:27:14;3.42;;;3.00;;
4808;SDS011;2418;49.930;8.606;2022-10-16T03:29:39;4.80;;;3.03;;
4808;SDS011;2418;49.930;8.606;2022-10-16T03:32:05;14.00;;;3.83;;
4808;SDS011;2418;49.930;8.606;2022-10-16T03:34:31;3.10;;;3.00;;
4808;SDS011;2418;49.930;8.606;2022-10-16T03:36:56;3.85;;;3.00;;
4808;SDS011;2418;49.930;8.606;2022-10-16T03:39:22;3.30;;;3.00;;
4808;SDS011;2418;49.930;8.606;2022-10-16T03:41:48;8.30;;;3.30;;
4808;SDS011;2418;49.930;8.606;2022-10-16T03:44:13;3.37;;;3.10;;
4808;SDS011;2418;49.930;8.606;2022-10-16T03:46:39;2.80;;;2.60;;
4808;SDS011;2418;49.930;8.606;2022-10-16T03:49:04;3.20;;;2.90;;
4808;SDS011;2418;49.930;8.606;2022-10-16T03:51:30;6.37;;;3.00;;
4808;SDS011;2418;49.930;8.606;2022-10-16T03:53:56;5.20;;;2.80;;
4808;SDS011;2418;49.930;8.606;2022-10-16T03:56:21;5.60;;;3.03;;
4808;SDS011;2418;49.930;8.606;2022-10-16T03:58:47;2.97;;;2.60;;
4808;SDS011;2418;49.930;8.606;2022-10-16T04:01:12;5.07;;;2.80;;
4808;SDS011;2418;49.930;8.606;2022-10-16T04:03:38;4.00;;;2.90;;
4808;SDS011;2418;49.930;8.606;2022-10-16T04:06:04;2.80;;;2.60;;
4808;SDS011;2418;49.930;8.606;2022-10-16T04:08:30;4.00;;;2.50;;
4808;SDS011;2418;49.930;8.606;2022-10-16T04:10:55;2.60;;;2.13;;
4808;SDS011;2418;49.930;8.606;2022-10-16T04:13:21;5.70;;;2.10;;
4808;SDS011;2418;49.930;8.606;2022-10-16T04:15:46;3.50;;;2.00;;
4808;SDS011;2418;49.930;8.606;2022-10-16T04:18:12;3.70;;;2.17;;
4808;SDS011;2418;49.930;8.606;2022-10-16T04:20:38;2.43;;;1.87;;
4808;SDS011;2418;49.930;8.606;2022-10-16T04:23:04;4.17;;;2.10;;
4808;SDS011;2418;49.930;8.606;2022-10-16T04:25:30;2.23;;;2.03;;
4808;SDS011;2418;49.930;8.606;2022-10-16T04:27:56;8.60;;;2.40;;
4808;SDS011;2418;49.930;8.606;2022-10-16T04:30:22;5.78;;;2.90;;
4808;SDS011;2418;49.930;8.606;2022-10-16T04:32:48;2.42;;;2.22;;
4808;SDS011;2418;49.930;8.606;2022-10-16T04:35:15;2.80;;;2.60;;
4808;SDS011;2418;49.930;8.606;2022-10-16T04:37:41;3.10;;;2.45;;
4808;SDS011;2418;49.930;8.606;2022-10-16T04:40:06;2.65;;;2.45;;
4808;SDS011;2418;49.930;8.606;2022-10-16T04:42:32;3.50;;;2.90;;
4808;SDS011;2418;49.930;8.606;2022-10-16T04:44:58;4.07;;;2.47;;
4808;SDS011;2418;49.930;8.606;2022-10-16T04:47:24;3.53;;;3.23;;
4808;SDS011;2418;49.930;8.606;2022-10-16T04:49:49;5.37;;;3.63;;
4808;SDS011;2418;49.930;8.606;2022-10-16T04:52:15;4.53;;;3.90;;
4808;SDS011;2418;49.930;8.606;2022-10-16T04:54:41;5.97;;;3.78;;
4808;SDS011;2418;49.930;8.606;2022-10-16T04:57:06;4.40;;;4.20;;
4808;SDS011;2418;49.930;8.606;2022-10-16T04:59:32;5.80;;;4.40;;
4808;SDS011;2418;49.930;8.606;2022-10-16T05:01:57;7.13;;;4.80;;
4808;SDS011;2418;49.930;8.606;2022-10-16T05:04:23;5.40;;;5.00;;
4808;SDS011;2418;49.930;8.606;2022-10-16T05:06:48;12.93;;;5.57;;
4808;SDS011;2418;49.930;8.606;2022-10-16T05:09:14;7.80;;;5.60;;
4808;SDS011;2418;49.930;8.606;2022-10-16T05:11:40;5.73;;;5.20;;
4808;SDS011;2418;49.930;8.606;2022-10-16T05:14:05;8.27;;;5.20;;
4808;SDS011;2418;49.930;8.606;2022-10-16T05:16:31;7.87;;;5.90;;
4808;SDS011;2418;49.930;8.606;2022-10-16T05:18:57;7.70;;;5.60;;
4808;SDS011;2418;49.930;8.606;2022-10-16T05:21:22;5.40;;;5.00;;
4808;SDS011;2418;49.930;8.606;2022-10-16T05:23:48;10.57;;;6.20;;
4808;SDS011;2418;49.930;8.606;2022-10-16T05:26:13;5.53;;;5.13;;
4808;SDS011;2418;49.930;8.606;2022-10-16T05:28:39;6.30;;;5.72;;
4808;SDS011;2418;49.930;8.606;2022-10-16T05:31:08;9.17;;;5.40;;
4808;SDS011;2418;49.930;8.606;2022-10-16T05:33:34;6.63;;;5.53;;
4808;SDS011;2418;49.930;8.606;2022-10-16T05:36:01;6.23;;;5.30;;
4808;SDS011;2418;49.930;8.606;2022-10-16T05:38:32;6.05;;;5.45;;
4808;SDS011;2418;49.930;8.606;2022-10-16T05:40:57;8.57;;;5.23;;
4808;SDS011;2418;49.930;8.606;2022-10-16T05:43:23;6.47;;;5.40;;
4808;SDS011;2418;49.930;8.606;2022-10-16T05:45:59;5.57;;;5.07;;
4808;SDS011;2418;49.930;8.606;2022-10-16T05:48:29;7.47;;;5.68;;
4808;SDS011;2418;49.930;8.606;2022-10-16T05:50:57;7.05;;;6.18;;
4808;SDS011;2418;49.930;8.606;2022-10-16T05:53:28;6.03;;;5.40;;
4808;SDS011;2418;49.930;8.606;2022-10-16T05:55:55;8.07;;;5.50;;
4808;SDS011;2418;49.930;8.606;2022-10-16T05:58:21;8.10;;;5.85;;
4808;SDS011;2418;49.930;8.606;2022-10-16T06:00:54;6.85;;;6.00;;
4808;SDS011;2418;49.930;8.606;2022-10-16T06:03:21;14.75;;;5.80;;
4808;SDS011;2418;49.930;8.606;2022-10-16T06:05:47;8.40;;;5.32;;
4808;SDS011;2418;49.930;8.606;2022-10-16T06:08:13;8.15;;;5.63;;
4808;SDS011;2418;49.930;8.606;2022-10-16T06:10:38;13.00;;;6.88;;
4808;SDS011;2418;49.930;8.606;2022-10-16T06:13:04;10.23;;;7.13;;
4808;SDS011;2418;49.930;8.606;2022-10-16T06:15:30;22.83;;;13.53;;
4808;SDS011;2418;49.930;8.606;2022-10-16T06:17:56;57.37;;;24.97;;
4808;SDS011;2418;49.930;8.606;2022-10-16T06:20:21;50.37;;;21.43;;
4808;SDS011;2418;49.930;8.606;2022-10-16T06:22:47;45.83;;;19.83;;
4808;SDS011;2418;49.930;8.606;2022-10-16T06:25:12;37.33;;;14.93;;
4808;SDS011;2418;49.930;8.606;2022-10-16T06:27:41;8.75;;;6.10;;
4808;SDS011;2418;49.930;8.606;2022-10-16T06:30:07;6.40;;;6.00;;
4808;SDS011;2418;49.930;8.606;2022-10-16T06:32:33;9.88;;;5.55;;
4808;SDS011;2418;49.930;8.606;2022-10-16T06:34:59;10.18;;;5.60;;
4808;SDS011;2418;49.930;8.606;2022-10-16T06:37:24;8.87;;;5.30;;
4808;SDS011;2418;49.930;8.606;2022-10-16T06:39:50;5.65;;;5.05;;
4808;SDS011;2418;49.930;8.606;2022-10-16T06:42:19;8.95;;;5.68;;
4808;SDS011;2418;49.930;8.606;2022-10-16T06:44:45;5.40;;;4.90;;
4808;SDS011;2418;49.930;8.606;2022-10-16T06:47:10;5.60;;;5.10;;
4808;SDS011;2418;49.930;8.606;2022-10-16T06:49:36;5.77;;;5.27;;
4808;SDS011;2418;49.930;8.606;2022-10-16T06:52:02;10.50;;;7.20;;
4808;SDS011;2418;49.930;8.606;2022-10-16T06:54:29;8.80;;;6.22;;
4808;SDS011;2418;49.930;8.606;2022-10-16T06:56:55;6.93;;;5.55;;
4808;SDS011;2418;49.930;8.606;2022-10-16T06:59:22;7.88;;;5.85;;
4808;SDS011;2418;49.930;8.606;2022-10-16T07:01:47;6.57;;;6.05;;
4808;SDS011;2418;49.930;8.606;2022-10-16T07:04:13;8.27;;;5.60;;
4808;SDS011;2418;49.930;8.606;2022-10-16T07:06:39;6.90;;;6.30;;
4808;SDS011;2418;49.930;8.606;2022-10-16T07:09:06;7.85;;;5.55;;
4808;SDS011;2418;49.930;8.606;2022-10-16T07:11:34;11.35;;;5.88;;
4808;SDS011;2418;49.930;8.606;2022-10-16T07:14:02;9.23;;;6.20;;
4808;SDS011;2418;49.930;8.606;2022-10-16T07:16:28;6.82;;;6.30;;
4808;SDS011;2418;49.930;8.606;2022-10-16T07:18:56;7.22;;;6.30;;
4808;SDS011;2418;49.930;8.606;2022-10-16T07:21:24;6.80;;;6.20;;
4808;SDS011;2418;49.930;8.606;2022-10-16T07:23:54;6.50;;;5.78;;
4808;SDS011;2418;49.930;8.606;2022-10-16T07:26:23;11.10;;;6.30;;
4808;SDS011;2418;49.930;8.606;2022-10-16T07:28:49;6.30;;;5.90;;
4808;SDS011;2418;49.930;8.606;2022-10-16T07:31:16;8.65;;;7.95;;
4808;SDS011;2418;49.930;8.606;2022-10-16T07:33:43;8.40;;;7.70;;
4808;SDS011;2418;49.930;8.606;2022-10-16T07:36:10;5.90;;;5.50;;
4808;SDS011;2418;49.930;8.606;2022-10-16T07:38:40;9.20;;;5.43;;
4808;SDS011;2418;49.930;8.606;2022-10-16T07:41:07;6.90;;;5.50;;
4808;SDS011;2418;49.930;8.606;2022-10-16T07:43:39;10.50;;;5.07;;
4808;SDS011;2418;49.930;8.606;2022-10-16T07:46:04;6.05;;;5.45;;
4808;SDS011;2418;49.930;8.606;2022-10-16T07:48:32;7.80;;;4.95;;
4808;SDS011;2418;49.930;8.606;2022-10-16T07:51:00;6.55;;;5.00;;
4808;SDS011;2418;49.930;8.606;2022-10-16T07:53:28;7.18;;;5.57;;
4808;SDS011;2418;49.930;8.606;2022-10-16T07:56:02;9.35;;;6.57;;
4808;SDS011;2418;49.930;8.606;2022-10-16T07:58:29;14.07;;;7.72;;
4808;SDS011;2418;49.930;8.606;2022-10-16T08:00:56;22.02;;;10.68;;
4808;SDS011;2418;49.930;8.606;2022-10-16T08:03:22;13.43;;;7.90;;
4808;SDS011;2418;49.930;8.606;2022-10-16T08:05:49;8.03;;;7.07;;
4808;SDS011;2418;49.930;8.606;2022-10-16T08:08:15;8.98;;;6.00;;
4808;SDS011;2418;49.930;8.606;2022-10-16T08:10:42;5.07;;;4.77;;
4808;SDS011;2418;49.930;8.606;2022-10-16T08:13:08;9.13;;;6.28;;
4808;SDS011;2418;49.930;8.606;2022-10-16T08:15:34;9.90;;;7.30;;
4808;SDS011;2418;49.930;8.606;2022-10-16T08:18:01;13.52;;;6.80;;
4808;SDS011;2418;49.930;8.606;2022-10-16T08:20:30;5.40;;;4.90;;
4808;SDS011;2418;49.930;8.606;2022-10-16T08:22:56;5.70;;;5.35;;
4808;SDS011;2418;49.930;8.606;2022-10-16T08:25:22;6.95;;;5.13;;
4808;SDS011;2418;49.930;8.606;2022-10-16T08:27:49;5.60;;;5.20;;
4808;SDS011;2418;49.930;8.606;2022-10-16T08:30:16;7.55;;;5.10;;
4808;SDS011;2418;49.930;8.606;2022-10-16T08:32:43;8.30;;;5.07;;
4808;SDS011;2418;49.930;8.606;2022-10-16T08:35:09;7.80;;;5.37;;
4808;SDS011;2418;49.930;8.606;2022-10-16T08:37:36;5.75;;;5.25;;
4808;SDS011;2418;49.930;8.606;2022-10-16T08:40:03;5.85;;;5.45;;
4808;SDS011;2418;49.930;8.606;2022-10-16T08:42:38;7.10;;;5.15;;
4808;SDS011;2418;49.930;8.606;2022-10-16T08:48:00;9.50;;;5.22;;
4808;SDS011;2418;49.930;8.606;2022-10-16T08:50:40;8.27;;;5.30;;
4808;SDS011;2418;49.930;8.606;2022-10-16T08:53:06;7.93;;;5.35;;
4808;SDS011;2418;49.930;8.606;2022-10-16T08:55:46;10.65;;;5.30;;
4808;SDS011;2418;49.930;8.606;2022-10-16T08:58:16;5.38;;;4.85;;
4808;SDS011;2418;49.930;8.606;2022-10-16T09:00:56;10.17;;;4.80;;
4808;SDS011;2418;49.930;8.606;2022-10-16T09:11:41;9.68;;;4.30;;
4808;SDS011;2418;49.930;8.606;2022-10-16T09:17:22;6.22;;;4.57;;
4808;SDS011;2418;49.930;8.606;2022-10-16T09:22:53;4.40;;;4.10;;
4808;SDS011;2418;49.930;8.606;2022-10-16T09:25:42;6.18;;;4.10;;
4808;SDS011;2418;49.930;8.606;2022-10-16T09:28:10;9.55;;;4.22;;
4808;SDS011;2418;49.930;8.606;2022-10-16T09:30:35;4.63;;;4.13;;
4808;SDS011;2418;49.930;8.606;2022-10-16T09:33:02;5.88;;;3.83;;
4808;SDS011;2418;49.930;8.606;2022-10-16T09:35:35;8.73;;;4.75;;
4808;SDS011;2418;49.930;8.606;2022-10-16T09:38:08;4.10;;;3.70;;
4808;SDS011;2418;49.930;8.606;2022-10-16T09:40:45;5.00;;;3.50;;
4808;SDS011;2418;49.930;8.606;2022-10-16T09:43:27;4.00;;;3.60;;
4808;SDS011;2418;49.930;8.606;2022-10-16T09:48:37;7.13;;;3.20;;
4808;SDS011;2418;49.930;8.606;2022-10-16T09:51:18;3.83;;;3.13;;
4808;SDS011;2418;49.930;8.606;2022-10-16T09:53:47;3.20;;;3.00;;
4808;SDS011;2418;49.930;8.606;2022-10-16T09:56:34;3.15;;;2.83;;
4808;SDS011;2418;49.930;8.606;2022-10-16T09:59:22;2.97;;;2.85;;
4808;SDS011;2418;49.930;8.606;2022-10-16T10:01:54;3.10;;;3.00;;
4808;SDS011;2418;49.930;8.606;2022-10-16T10:04:21;2.80;;;2.38;;
4808;SDS011;2418;49.930;8.606;2022-10-16T10:06:49;3.20;;;3.00;;
4808;SDS011;2418;49.930;8.606;2022-10-16T10:12:17;2.97;;;2.78;;
4808;SDS011;2418;49.930;8.606;2022-10-16T10:14:50;3.30;;;3.10;;
4808;SDS011;2418;49.930;8.606;2022-10-16T10:22:42;3.30;;;3.10;;
4808;SDS011;2418;49.930;8.606;2022-10-16T10:36:34;3.22;;;3.13;;
4808;SDS011;2418;49.930;8.606;2022-10-16T10:39:25;3.75;;;2.83;;
4808;SDS011;2418;49.930;8.606;2022-10-16T11:05:45;2.20;;;2.10;;
4808;SDS011;2418;49.930;8.606;2022-10-16T11:08:23;1.60;;;1.60;;
4808;SDS011;2418;49.930;8.606;2022-10-16T11:11:02;2.20;;;2.10;;
4808;SDS011;2418;49.930;8.606;2022-10-16T11:16:40;2.00;;;1.90;;
4808;SDS011;2418;49.930;8.606;2022-10-16T11:19:11;1.73;;;1.63;;
4808;SDS011;2418;49.930;8.606;2022-10-16T11:21:50;1.85;;;1.85;;
4808;SDS011;2418;49.930;8.606;2022-10-16T11:24:34;3.92;;;2.10;;
4808;SDS011;2418;49.930;8.606;2022-10-16T11:27:00;3.00;;;1.80;;
4808;SDS011;2418;49.930;8.606;2022-10-16T11:29:32;4.10;;;1.90;;
4808;SDS011;2418;49.930;8.606;2022-10-16T11:35:08;2.43;;;2.27;;
4808;SDS011;2418;49.930;8.606;2022-10-16T11:37:47;2.33;;;2.22;;
4808;SDS011;2418;49.930;8.606;2022-10-16T11:40:24;3.75;;;2.13;;
4808;SDS011;2418;49.930;8.606;2022-10-16T11:43:01;2.35;;;2.25;;
4808;SDS011;2418;49.930;8.606;2022-10-16T11:45:40;2.00;;;1.80;;
4808;SDS011;2418;49.930;8.606;2022-10-16T11:50:54;4.00;;;2.03;;
4808;SDS011;2418;49.930;8.606;2022-10-16T11:56:15;1.33;;;1.33;;
4808;SDS011;2418;49.930;8.606;2022-10-16T12:01:38;2.60;;;2.50;;
4808;SDS011;2418;49.930;8.606;2022-10-16T12:04:29;2.20;;;2.10;;
4808;SDS011;2418;49.930;8.606;2022-10-16T12:06:57;1.90;;;1.80;;
4808;SDS011;2418;49.930;8.606;2022-10-16T12:09:34;2.60;;;2.20;;
4808;SDS011;2418;49.930;8.606;2022-10-16T12:12:03;2.75;;;2.10;;
4808;SDS011;2418;49.930;8.606;2022-10-16T12:14:36;1.85;;;1.83;;
4808;SDS011;2418;49.930;8.606;2022-10-16T12:17:22;2.38;;;1.73;;
4808;SDS011;2418;49.930;8.606;2022-10-16T12:19:57;1.30;;;1.30;;
4808;SDS011;2418;49.930;8.606;2022-10-16T12:22:24;2.58;;;1.60;;
4808;SDS011;2418;49.930;8.606;2022-10-16T12:24:54;1.70;;;1.60;;
4808;SDS011;2418;49.930;8.606;2022-10-16T12:27:29;1.27;;;1.20;;
4808;SDS011;2418;49.930;8.606;2022-10-16T12:29:57;1.30;;;1.30;;
4808;SDS011;2418;49.930;8.606;2022-10-16T12:32:29;5.65;;;1.50;;
4808;SDS011;2418;49.930;8.606;2022-10-16T12:34:57;1.50;;;1.40;;
4808;SDS011;2418;49.930;8.606;2022-10-16T12:37:25;2.70;;;1.60;;
4808;SDS011;2418;49.930;8.606;2022-10-16T12:40:15;1.60;;;1.50;;
4808;SDS011;2418;49.930;8.606;2022-10-16T12:42:52;1.60;;;1.60;;
4808;SDS011;2418;49.930;8.606;2022-10-16T12:45:28;5.30;;;1.60;;
4808;SDS011;2418;49.930;8.606;2022-10-16T12:47:56;1.77;;;1.67;;
4808;SDS011;2418;49.930;8.606;2022-10-16T12:53:02;1.70;;;1.60;;
4808;SDS011;2418;49.930;8.606;2022-10-16T12:55:48;2.00;;;1.70;;
4808;SDS011;2418;49.930;8.606;2022-10-16T12:58:37;1.60;;;1.60;;
4808;SDS011;2418;49.930;8.606;2022-10-16T13:01:31;1.80;;;1.70;;
4808;SDS011;2418;49.930;8.606;2022-10-16T13:07:15;4.20;;;2.00;;
4808;SDS011;2418;49.930;8.606;2022-10-16T13:18:13;1.80;;;1.80;;
4808;SDS011;2418;49.930;8.606;2022-10-16T13:21:08;2.37;;;2.20;;
4808;SDS011;2418;49.930;8.606;2022-10-16T13:23:38;2.30;;;2.20;;
4808;SDS011;2418;49.930;8.606;2022-10-16T13:26:23;2.20;;;2.10;;
4808;SDS011;2418;49.930;8.606;2022-10-16T13:28:58;3.78;;;1.90;;
4808;SDS011;2418;49.930;8.606;2022-10-16T13:31:28;2.22;;;2.03;;
4808;SDS011;2418;49.930;8.606;2022-10-16T13:33:56;2.10;;;1.90;;
4808;SDS011;2418;49.930;8.606;2022-10-16T13:36:35;2.22;;;2.13;;
4808;SDS011;2418;49.930;8.606;2022-10-16T13:44:33;2.35;;;2.15;;
4808;SDS011;2418;49.930;8.606;2022-10-16T13:47:04;5.20;;;2.28;;
4808;SDS011;2418;49.930;8.606;2022-10-16T13:49:30;5.50;;;2.28;;
4808;SDS011;2418;49.930;8.606;2022-10-16T13:51:56;3.00;;;2.50;;
4808;SDS011;2418;49.930;8.606;2022-10-16T13:54:24;2.17;;;2.17;;
4808;SDS011;2418;49.930;8.606;2022-10-16T13:56:50;2.50;;;2.40;;
4808;SDS011;2418;49.930;8.606;2022-10-16T13:59:35;2.40;;;2.20;;
4808;SDS011;2418;49.930;8.606;2022-10-16T14:02:25;3.30;;;2.45;;
4808;SDS011;2418;49.930;8.606;2022-10-16T14:05:00;2.60;;;2.40;;
4808;SDS011;2418;49.930;8.606;2022-10-16T14:07:28;3.00;;;2.50;;
4808;SDS011;2418;49.930;8.606;2022-10-16T14:09:56;4.10;;;2.15;;
4808;SDS011;2418;49.930;8.606;2022-10-16T14:12:28;2.72;;;2.53;;
4808;SDS011;2418;49.930;8.606;2022-10-16T14:14:54;3.42;;;2.67;;
4808;SDS011;2418;49.930;8.606;2022-10-16T14:19:50;9.13;;;7.68;;
4808;SDS011;2418;49.930;8.606;2022-10-16T14:22:26;16.40;;;13.07;;
4808;SDS011;2418;49.930;8.606;2022-10-16T14:24:54;6.55;;;4.07;;
4808;SDS011;2418;49.930;8.606;2022-10-16T14:27:28;3.38;;;3.08;;
4808;SDS011;2418;49.930;8.606;2022-10-16T14:30:08;3.05;;;2.70;;
4808;SDS011;2418;49.930;8.606;2022-10-16T14:32:52;3.00;;;2.50;;
4808;SDS011;2418;49.930;8.606;2022-10-16T14:35:29;3.75;;;2.55;;
4808;SDS011;2418;49.930;8.606;2022-10-16T14:37:57;2.50;;;2.40;;
4808;SDS011;2418;49.930;8.606;2022-10-16T14:40:28;5.20;;;2.60;;
4808;SDS011;2418;49.930;8.606;2022-10-16T14:42:56;2.40;;;2.40;;
4808;SDS011;2418;49.930;8.606;2022-10-16T14:45:27;5.80;;;2.40;;
4808;SDS011;2418;49.930;8.606;2022-10-16T14:47:56;2.85;;;2.75;;
4808;SDS011;2418;49.930;8.606;2022-10-16T14:50:24;2.90;;;2.80;;
4808;SDS011;2418;49.930;8.606;2022-10-16T14:52:50;3.05;;;2.95;;
4808;SDS011;2418;49.930;8.606;2022-10-16T14:55:16;3.22;;;2.75;;
4808;SDS011;2418;49.930;8.606;2022-10-16T14:57:43;3.30;;;3.10;;
4808;SDS011;2418;49.930;8.606;2022-10-16T15:00:20;5.65;;;3.00;;
4808;SDS011;2418;49.930;8.606;2022-10-16T15:02:48;2.92;;;2.83;;
4808;SDS011;2418;49.930;8.606;2022-10-16T15:05:19;3.83;;;3.38;;
4808;SDS011;2418;49.930;8.606;2022-10-16T15:07:54;6.13;;;4.30;;
4808;SDS011;2418;49.930;8.606;2022-10-16T15:10:21;15.10;;;6.93;;
4808;SDS011;2418;49.930;8.606;2022-10-16T15:12:48;4.57;;;4.15;;
4808;SDS011;2418;49.930;8.606;2022-10-16T15:17:55;7.00;;;3.30;;
4808;SDS011;2418;49.930;8.606;2022-10-16T15:20:25;7.97;;;3.40;;
4808;SDS011;2418;49.930;8.606;2022-10-16T15:22:52;7.47;;;3.70;;
4808;SDS011;2418;49.930;8.606;2022-10-16T15:25:26;3.50;;;3.30;;
4808;SDS011;2418;49.930;8.606;2022-10-16T15:27:56;5.00;;;3.50;;
4808;SDS011;2418;49.930;8.606;2022-10-16T15:30:22;4.78;;;2.70;;
4808;SDS011;2418;49.930;8.606;2022-10-16T15:32:48;4.53;;;3.85;;
4808;SDS011;2418;49.930;8.606;2022-10-16T15:35:14;2.97;;;2.88;;
4808;SDS011;2418;49.930;8.606;2022-10-16T15:37:40;3.22;;;2.95;;
4808;SDS011;2418;49.930;8.606;2022-10-16T15:40:06;5.57;;;4.07;;
4808;SDS011;2418;49.930;8.606;2022-10-16T15:42:33;6.13;;;3.30;;
4808;SDS011;2418;49.930;8.606;2022-10-16T15:44:58;5.43;;;3.30;;
4808;SDS011;2418;49.930;8.606;2022-10-16T15:47:24;6.45;;;5.85;;
4808;SDS011;2418;49.930;8.606;2022-10-16T15:49:51;8.73;;;4.78;;
4808;SDS011;2418;49.930;8.606;2022-10-16T15:52:20;6.45;;;4.30;;
4808;SDS011;2418;49.930;8.606;2022-10-16T15:54:46;13.02;;;4.28;;
4808;SDS011;2418;49.930;8.606;2022-10-16T15:57:11;3.80;;;3.50;;
4808;SDS011;2418;49.930;8.606;2022-10-16T15:59:37;3.17;;;2.90;;
4808;SDS011;2418;49.930;8.606;2022-10-16T16:02:03;2.90;;;2.80;;
4808;SDS011;2418;49.930;8.606;2022-10-16T16:04:29;8.40;;;2.85;;
4808;SDS011;2418;49.930;8.606;2022-10-16T16:06:55;3.58;;;2.92;;
4808;SDS011;2418;49.930;8.606;2022-10-16T16:09:21;3.65;;;3.35;;
4808;SDS011;2418;49.930;8.606;2022-10-16T16:11:48;2.78;;;2.67;;
4808;SDS011;2418;49.930;8.606;2022-10-16T16:14:16;5.40;;;3.20;;
4808;SDS011;2418;49.930;8.606;2022-10-16T16:16:42;3.10;;;2.90;;
4808;SDS011;2418;49.930;8.606;2022-10-16T16:19:07;3.67;;;3.25;;
4808;SDS011;2418;49.930;8.606;2022-10-16T16:21:34;8.07;;;3.58;;
4808;SDS011;2418;49.930;8.606;2022-10-16T16:24:00;4.35;;;3.20;;
4808;SDS011;2418;49.930;8.606;2022-10-16T16:26:27;9.27;;;3.55;;
4808;SDS011;2418;49.930;8.606;2022-10-16T16:28:59;6.57;;;3.58;;
4808;SDS011;2418;49.930;8.606;2022-10-16T16:31:26;4.10;;;3.40;;
4808;SDS011;2418;49.930;8.606;2022-10-16T16:33:53;11.75;;;4.55;;
4808;SDS011;2418;49.930;8.606;2022-10-16T16:36:18;4.35;;;3.85;;
4808;SDS011;2418;49.930;8.606;2022-10-16T16:38:45;8.05;;;3.97;;
4808;SDS011;2418;49.930;8.606;2022-10-16T16:41:14;9.87;;;3.93;;
4808;SDS011;2418;49.930;8.606;2022-10-16T16:43:44;10.20;;;4.40;;
4808;SDS011;2418;49.930;8.606;2022-10-16T16:46:12;5.68;;;3.30;;
4808;SDS011;2418;49.930;8.606;2022-10-16T16:48:38;14.48;;;3.88;;
4808;SDS011;2418;49.930;8.606;2022-10-16T16:51:05;7.65;;;4.00;;
4808;SDS011;2418;49.930;8.606;2022-10-16T16:53:35;5.13;;;3.83;;
4808;SDS011;2418;49.930;8.606;2022-10-16T16:56:02;4.75;;;3.88;;
4808;SDS011;2418;49.930;8.606;2022-10-16T16:58:28;5.90;;;4.10;;
4808;SDS011;2418;49.930;8.606;2022-10-16T17:00:54;4.53;;;4.00;;
4808;SDS011;2418;49.930;8.606;2022-10-16T17:03:19;4.17;;;3.77;;
4808;SDS011;2418;49.930;8.606;2022-10-16T17:05:54;7.90;;;3.70;;
4808;SDS011;2418;49.930;8.606;2022-10-16T17:08:31;4.63;;;4.15;;
4808;SDS011;2418;49.930;8.606;2022-10-16T17:10:58;5.40;;;4.90;;
4808;SDS011;2418;49.930;8.606;2022-10-16T17:13:24;9.20;;;5.30;;
4808;SDS011;2418;49.930;8.606;2022-10-16T17:15:51;4.78;;;4.25;;
4808;SDS011;2418;49.930;8.606;2022-10-16T17:18:18;10.00;;;5.40;;
4808;SDS011;2418;49.930;8.606;2022-10-16T17:20:46;6.68;;;4.35;;
4808;SDS011;2418;49.930;8.606;2022-10-16T17:23:16;7.32;;;4.43;;